Washington Pass
Washington Pass
Latest observation 08/31 20:00 PDT
| Time (PDT) | Temp °F 6680' | Temp °F 5450' | RH % 6680' | RH % 5450' | Min mph 6680' | Spd mph 6680' | Gust mph 6680' | Dir ° 6680' | Pcp1 in 5450' | PcpSum in 5450' | SnoHt in 5450' | EqTemp °F 5450' |
|---|---|---|---|---|---|---|---|---|---|---|---|---|
| 08/31 20:00 | 53 | 50 | 60 | 73 | 0 | 0 | 4 | 19 | 0.00 | 0.21 | 5.0 | 51 |
| 08/31 19:00 | 56 | 54 | 55 | 66 | 0 | 0 | 0 | 18 | 0.00 | 0.21 | 4.4 | 57 |
| 08/31 18:00 | 57 | 58 | 54 | 62 | 0 | 0 | 2 | 27 | 0.00 | 0.21 | 4.2 | 64 |
| 08/31 17:00 | 60 | 62 | 46 | 46 | 0 | 5 | 11 | 175 | 0.00 | 0.21 | 4.0 | 79 |
| 08/31 16:00 | 60 | 61 | 50 | 47 | 4 | 8 | 11 | 175 | 0.00 | 0.21 | 2.9 | 74 |
| 08/31 15:00 | 58 | 58 | 51 | 58 | 2 | 7 | 10 | 46 | 0.00 | 0.21 | 4.4 | 65 |
| 08/31 14:00 | 59 | 59 | 51 | 52 | 0 | 5 | 9 | 151 | 0.00 | 0.21 | 4.0 | 68 |
| 08/31 13:00 | 55 | 61 | 59 | 49 | 0 | 3 | 7 | 40 | 0.00 | 0.21 | 2.0 | 74 |
| 08/31 12:00 | 53 | 57 | 63 | 55 | 0 | 3 | 8 | 37 | 0.00 | 0.21 | 3.6 | 65 |
| 08/31 11:00 | 48 | 51 | 73 | 68 | 0 | 5 | 10 | 17 | 0.00 | 0.21 | 4.3 | 57 |
| 08/31 10:00 | 47 | 46 | 74 | 79 | 0 | 2 | 6 | 23 | 0.00 | 0.21 | 3.4 | 45 |
| 08/31 09:00 | 49 | 42 | 70 | 93 | 0 | 0 | 2 | 31 | 0.00 | 0.21 | 3.0 | 42 |
| 08/31 08:00 | 46 | 40 | 76 | 96 | 0 | 0 | 3 | 175 | 0.00 | 0.21 | 4.7 | 39 |
| 08/31 07:00 | 43 | 37 | 83 | 96 | 0 | 1 | 3 | 166 | 0.00 | 0.21 | 4.8 | 37 |
| 08/31 06:00 | 44 | 37 | 78 | 94 | 0 | 0 | 0 | 80 | 0.00 | 0.21 | 4.8 | 37 |
| 08/31 05:00 | 44 | 37 | 79 | 94 | 0 | 1 | 2 | 218 | 0.00 | 0.21 | 5.0 | 37 |
| 08/31 04:00 | 45 | 37 | 76 | 94 | 0 | 3 | 6 | 224 | 0.00 | 0.21 | 5.0 | 37 |
| 08/31 03:00 | 44 | 37 | 77 | 93 | 0 | 3 | 5 | 203 | 0.00 | 0.21 | 5.4 | 37 |
| 08/31 02:00 | 45 | 37 | 74 | 93 | 0 | 2 | 5 | 212 | 0.00 | 0.21 | 5.2 | 36 |
| 08/31 01:00 | 45 | 37 | 75 | 91 | 0 | 0 | 2 | 176 | 0.00 | 0.21 | 5.3 | 37 |
| 08/31 00:00 | 46 | 38 | 71 | 90 | 0 | 0 | 0 | 89 | 0.00 | 0.21 | 5.4 | 38 |
| 08/30 23:00 | 46 | 41 | 67 | 87 | 0 | 0 | 0 | 86 | 0.00 | 0.21 | 5.3 | 40 |
| 08/30 22:00 | 46 | 41 | 72 | 86 | 0 | 5 | 9 | 265 | 0.00 | 0.21 | 5.1 | 41 |
| 08/30 21:00 | 43 | 43 | 82 | 84 | 0 | 4 | 8 | 250 | 0.02 | 0.21 | 5.0 | 43 |
| 08/30 20:00 | 43 | 45 | 85 | 80 | 0 | 1 | 4 | 183 | 0.00 | 0.19 | 5.2 | 46 |
| 08/30 19:00 | 45 | 48 | 77 | 69 | 0 | 6 | 13 | 328 | 0.01 | 0.19 | 4.9 | 50 |
| 08/30 18:00 | 48 | 50 | 72 | 65 | 0 | 4 | 9 | 211 | 0.00 | 0.18 | 4.5 | 57 |
| 08/30 17:00 | 48 | 54 | 72 | 59 | 1 | 4 | 9 | 188 | 0.02 | 0.18 | 4.0 | 70 |
| 08/30 16:00 | 51 | 55 | 65 | 57 | 2 | 5 | 9 | 121 | 0.02 | 0.16 | 2.4 | 69 |
| 08/30 15:00 | 48 | 53 | 68 | 60 | 1 | 5 | 13 | 185 | 0.02 | 0.14 | 3.8 | 63 |
| 08/30 14:00 | 49 | 55 | 66 | 56 | 2 | 8 | 14 | 243 | 0.01 | 0.12 | 1.3 | 70 |
| 08/30 13:00 | 46 | 52 | 69 | 59 | 3 | 6 | 13 | 54 | 0.00 | 0.11 | 2.4 | 67 |
| 08/30 12:00 | 44 | 46 | 72 | 64 | 1 | 5 | 11 | 242 | 0.00 | 0.11 | 3.6 | 56 |
| 08/30 11:00 | 42 | 46 | 73 | 65 | 1 | 4 | 9 | 244 | 0.00 | 0.11 | 3.9 | 54 |
| 08/30 10:00 | 39 | 43 | 83 | 77 | 1 | 4 | 9 | 247 | 0.01 | 0.11 | 2.4 | 46 |
| 08/30 09:00 | 38 | 42 | 89 | 84 | 0 | 2 | 7 | 317 | 0.00 | 0.10 | 2.4 | 44 |
| 08/30 08:00 | 38 | 38 | 87 | 94 | 0 | 1 | 3 | 339 | 0.00 | 0.10 | 2.8 | 39 |
| 08/30 07:00 | 36 | 36 | 91 | 94 | 0 | 4 | 10 | 235 | 0.00 | 0.10 | 2.6 | 36 |
| 08/30 06:00 | 35 | 36 | 93 | 93 | 1 | 5 | 10 | 238 | 0.01 | 0.10 | 2.6 | 36 |
| 08/30 05:00 | 35 | 35 | 91 | 93 | 2 | 5 | 11 | 265 | 0.00 | 0.09 | 2.7 | 35 |
| 08/30 04:00 | 35 | 36 | 88 | 90 | 0 | 3 | 9 | 233 | 0.00 | 0.09 | 2.7 | 37 |
| 08/30 03:00 | 35 | 36 | 91 | 92 | 1 | 9 | 19 | 238 | 0.01 | 0.09 | 2.7 | 37 |
| 08/30 02:00 | 35 | 37 | 93 | 91 | 5 | 11 | 17 | 237 | 0.00 | 0.08 | 2.9 | 37 |
| 08/30 01:00 | 35 | 37 | 92 | 91 | 4 | 9 | 19 | 230 | 0.00 | 0.08 | 2.8 | 37 |
| 08/30 00:00 | 36 | 37 | 87 | 92 | 6 | 13 | 16 | 248 | 0.00 | 0.08 | 2.7 | 37 |
| 08/29 23:00 | 34 | 38 | 94 | 90 | 2 | 8 | 14 | 243 | 0.01 | 0.08 | 2.5 | 38 |
| 08/29 22:00 | 35 | 38 | 90 | 85 | 3 | 7 | 12 | 249 | 0.00 | 0.07 | 2.7 | 39 |
| 08/29 21:00 | 36 | 39 | 94 | 87 | 2 | 6 | 11 | 243 | 0.01 | 0.07 | 2.8 | 39 |
| 08/29 20:00 | 35 | 39 | 95 | 91 | 1 | 6 | 11 | 242 | 0.01 | 0.06 | 2.8 | 40 |
| 08/29 19:00 | 36 | 40 | 92 | 91 | 1 | 5 | 9 | 245 | 0.01 | 0.05 | 2.8 | 42 |
| 08/29 18:00 | 37 | 40 | 93 | 89 | 2 | 6 | 11 | 225 | 0.01 | 0.04 | 3.1 | 44 |
| 08/29 17:00 | 37 | 40 | 98 | 94 | 3 | 7 | 17 | 239 | 0.01 | 0.03 | 3.3 | 43 |
| 08/29 16:00 | 37 | 40 | 98 | 93 | 3 | 7 | 13 | 235 | 0.01 | 0.02 | 2.5 | 43 |
| 08/29 15:00 | 37 | 41 | 96 | 90 | 2 | 6 | 12 | 227 | 0.00 | 0.01 | 2.2 | 45 |
| 08/29 14:00 | 37 | 41 | 97 | 90 | 0 | 4 | 10 | 242 | 0.00 | 0.01 | 2.3 | 44 |
| 08/29 13:00 | 37 | 41 | 91 | 89 | 0 | 3 | 10 | 204 | 0.01 | 0.01 | 3.4 | 43 |
| 08/29 12:00 | 38 | 42 | 89 | 74 | 0 | 2 | 5 | 231 | 0.00 | 0.00 | 2.7 | 44 |
| 08/29 11:00 | 38 | 42 | 87 | 78 | 0 | 2 | 7 | 95 | 0.00 | 0.00 | 1.1 | 44 |
| 08/29 10:00 | 38 | 41 | 92 | 80 | 0 | 2 | 8 | 74 | 0.00 | 0.00 | 1.5 | 42 |
| 08/29 09:00 | 38 | 42 | 88 | 79 | 0 | 2 | 8 | 61 | 0.00 | 0.00 | 2.0 | 43 |
| 08/29 08:00 | 37 | 41 | 94 | 79 | 0 | 2 | 6 | 81 | 0.00 | 0.00 | 2.0 | 41 |
| 08/29 07:00 | 38 | 41 | 95 | 87 | 0 | 5 | 14 | 279 | 0.00 | 0.00 | 2.0 | 41 |
| 08/29 06:00 | 38 | 41 | 91 | 93 | 5 | 10 | 19 | 244 | 0.00 | 0.00 | 2.3 | 42 |
| 08/29 05:00 | 39 | 43 | 93 | 86 | 4 | 8 | 12 | 245 | 0.00 | 0.00 | 3.1 | 43 |
| 08/29 04:00 | 40 | 42 | 89 | 86 | 0 | 4 | 11 | 251 | 0.00 | 0.00 | 2.9 | 43 |
| 08/29 03:00 | 40 | 43 | 93 | 85 | 4 | 6 | 8 | 241 | 0.00 | 0.00 | 3.0 | 43 |
| 08/29 02:00 | 40 | 43 | 92 | 85 | 6 | 10 | 14 | 241 | 0.00 | 0.00 | 3.0 | 43 |
| 08/29 01:00 | 40 | 43 | 93 | 84 | 11 | 14 | 17 | 236 | 0.00 | 0.00 | 2.8 | 43 |
| 08/29 00:00 | 41 | 43 | 91 | 85 | 6 | 13 | 17 | 238 | 0.00 | 0.00 | 3.3 | 42 |
| 08/28 23:00 | 41 | 42 | 86 | 83 | 5 | 8 | 10 | 237 | 0.00 | 0.00 | 2.7 | 42 |
| 08/28 22:00 | 43 | 42 | 83 | 81 | 4 | 6 | 8 | 223 | 0.00 | 0.00 | 4.8 | 43 |
| 08/28 21:00 | 44 | 45 | 77 | 74 | 3 | 6 | 9 | 248 | 0.00 | 0.00 | 4.7 | 45 |
| 08/28 20:00 | 46 | 48 | 71 | 64 | 4 | 7 | 10 | 227 | 0.00 | 0.00 | 4.7 | 50 |
| 08/28 19:00 | 48 | 52 | 62 | 54 | 6 | 9 | 12 | 219 | 0.00 | 0.00 | 4.7 | 55 |
| 08/28 18:00 | 53 | 56 | 49 | 46 | 7 | 10 | 12 | 218 | 0.00 | 0.00 | 4.6 | 61 |
| 08/28 17:00 | 55 | 59 | 47 | 41 | 7 | 11 | 14 | 218 | 0.00 | 0.00 | 4.1 | 78 |
| 08/28 16:00 | 57 | 60 | 44 | 41 | 11 | 13 | 16 | 216 | 0.00 | 0.00 | 3.0 | 81 |
| 08/28 15:00 | 56 | 61 | 43 | 38 | 9 | 13 | 16 | 217 | 0.00 | 0.00 | 3.0 | 81 |
| 08/28 14:00 | 56 | 59 | 42 | 39 | 5 | 11 | 17 | 214 | 0.00 | 0.00 | 2.9 | 79 |
| 08/28 13:00 | 53 | 59 | 51 | 42 | 6 | 10 | 14 | 220 | 0.00 | 0.00 | 3.0 | 75 |
| 08/28 12:00 | 52 | 53 | 53 | 54 | 4 | 10 | 15 | 208 | 0.00 | 0.00 | 3.4 | 60 |
| 08/28 11:00 | 50 | 51 | 61 | 56 | 4 | 9 | 14 | 221 | 0.00 | 0.00 | 4.1 | 62 |
| 08/28 10:00 | 48 | 48 | 67 | 66 | 4 | 7 | 11 | 216 | 0.00 | 0.00 | 4.0 | 50 |
| 08/28 09:00 | 45 | 46 | 77 | 77 | 3 | 5 | 7 | 226 | 0.00 | 0.00 | 2.9 | 47 |
| 08/28 08:00 | 41 | 40 | 87 | 93 | 4 | 8 | 11 | 245 | 0.00 | 0.00 | 4.6 | 40 |
| 08/28 07:00 | 40 | 38 | 91 | 93 | 5 | 9 | 11 | 248 | 0.00 | 0.00 | 4.4 | 38 |
| 08/28 06:00 | 40 | 38 | 83 | 91 | 2 | 6 | 8 | 257 | 0.00 | 0.00 | 4.5 | 38 |
| 08/28 05:00 | 41 | 40 | 81 | 89 | 1 | 3 | 7 | 301 | 0.00 | 0.00 | 4.6 | 40 |
| 08/28 04:00 | 42 | 43 | 83 | 86 | 2 | 7 | 9 | 242 | 0.00 | 0.00 | 4.1 | 42 |
| 08/28 03:00 | 41 | 42 | 87 | 89 | 3 | 6 | 11 | 234 | 0.00 | 0.00 | 4.7 | 41 |
| 08/28 02:00 | 41 | 39 | 86 | 87 | 0 | 5 | 11 | 219 | 0.00 | 0.00 | 4.7 | 38 |
| 08/28 01:00 | 43 | 41 | 79 | 88 | 1 | 5 | 11 | 233 | 0.00 | 0.00 | 4.8 | 39 |
| 08/28 00:00 | 42 | 40 | 82 | 83 | 3 | 6 | 9 | 250 | 0.00 | 0.00 | 4.5 | 40 |
| 08/27 23:00 | 42 | 40 | 82 | 80 | 1 | 5 | 9 | 256 | 0.00 | 0.00 | 4.9 | 41 |
| 08/27 22:00 | 43 | 43 | 79 | 77 | 0 | 3 | 6 | 279 | 0.00 | 0.00 | 4.7 | 43 |
| 08/27 21:00 | 43 | 47 | 78 | 68 | 2 | 5 | 8 | 245 | 0.00 | 0.00 | 4.7 | 47 |
| 08/27 20:00 | 44 | 48 | 76 | 66 | 2 | 6 | 9 | 234 | 0.00 | 0.00 | 5.0 | 49 |
| 08/27 19:00 | 46 | 50 | 73 | 61 | 5 | 8 | 11 | 226 | 0.00 | 0.00 | 4.7 | 53 |
| 08/27 18:00 | 47 | 52 | 69 | 60 | 5 | 8 | 14 | 155 | 0.00 | 0.00 | 4.5 | 56 |
| 08/27 17:00 | 49 | 53 | 63 | 57 | 6 | 10 | 17 | 179 | 0.00 | 0.00 | 4.5 | 60 |
| 08/27 16:00 | 52 | 56 | 60 | 51 | 6 | 12 | 20 | 220 | 0.00 | 0.00 | 4.1 | 67 |
| 08/27 15:00 | 55 | 61 | 49 | 41 | 8 | 14 | 18 | 215 | 0.00 | 0.00 | 2.6 | 79 |
| 08/27 14:00 | 54 | 60 | 46 | 38 | 12 | 17 | 24 | 217 | 0.00 | 0.00 | 3.3 | 75 |
| 08/27 13:00 | 56 | 59 | 40 | 38 | 10 | 15 | 20 | 214 | 0.00 | 0.00 | 3.3 | 77 |
| 08/27 12:00 | 53 | 57 | 42 | 40 | 8 | 12 | 16 | 208 | 0.00 | 0.00 | 3.7 | 65 |
| 08/27 11:00 | 51 | 54 | 55 | 55 | 4 | 8 | 13 | 224 | 0.00 | 0.00 | 2.6 | 60 |
| 08/27 10:00 | 50 | 53 | 58 | 51 | 3 | 6 | 11 | 228 | 0.00 | 0.00 | 2.5 | 57 |
| 08/27 09:00 | 49 | 49 | 58 | 65 | 4 | 8 | 11 | 218 | 0.00 | 0.00 | 4.0 | 48 |
| 08/27 08:00 | 46 | 41 | 65 | 85 | 6 | 8 | 10 | 223 | 0.00 | 0.00 | 3.9 | 41 |
| 08/27 07:00 | 46 | 39 | 67 | 84 | 7 | 9 | 13 | 232 | 0.00 | 0.00 | 3.8 | 39 |
| 08/27 06:00 | 46 | 39 | 68 | 82 | 5 | 8 | 12 | 239 | 0.00 | 0.00 | 4.3 | 38 |
| 08/27 05:00 | 46 | 40 | 60 | 79 | 3 | 6 | 10 | 259 | 0.00 | 0.00 | 2.8 | 40 |
| 08/27 04:00 | 48 | 41 | 60 | 75 | 6 | 10 | 14 | 235 | 0.00 | 0.00 | 2.7 | 41 |
| 08/27 03:00 | 49 | 44 | 54 | 74 | 4 | 9 | 12 | 238 | 0.00 | 0.00 | 2.7 | 43 |
| 08/27 02:00 | 49 | 44 | 62 | 78 | 3 | 6 | 10 | 254 | 0.00 | 0.00 | 2.2 | 43 |
| 08/27 01:00 | 49 | 44 | 70 | 78 | 7 | 9 | 12 | 235 | 0.00 | 0.00 | 2.7 | 44 |
| 08/27 00:00 | 51 | 46 | 67 | 70 | 7 | 11 | 14 | 235 | 0.00 | 0.00 | 2.7 | 46 |
| 08/26 23:00 | 51 | 49 | 64 | 63 | 6 | 9 | 11 | 247 | 0.00 | 0.00 | 2.8 | 49 |
| 08/26 22:00 | 52 | 52 | 57 | 56 | 6 | 8 | 11 | 243 | 0.00 | 0.00 | 2.7 | 53 |
| 08/26 21:00 | 53 | 56 | 53 | 47 | 5 | 7 | 10 | 245 | 0.00 | 0.00 | 2.9 | 56 |
| 08/26 20:00 | 55 | 58 | 54 | 50 | 4 | 8 | 11 | 220 | 0.00 | 0.00 | 2.7 | 60 |
| 08/26 19:00 | 58 | 62 | 53 | 46 | 5 | 9 | 12 | 228 | 0.00 | 0.00 | 2.7 | 66 |
| 08/26 18:00 | 61 | 65 | 50 | 42 | 7 | 10 | 14 | 183 | 0.00 | 0.00 | 2.5 | 71 |
| 08/26 17:00 | 65 | 68 | 42 | 37 | 5 | 10 | 14 | 177 | 0.00 | 0.00 | 2.4 | 79 |
| 08/26 16:00 | 67 | 70 | 33 | 32 | 7 | 11 | 15 | 226 | 0.00 | 0.00 | 2.3 | 83 |
| 08/26 15:00 | 71 | 73 | 25 | 24 | 7 | 12 | 15 | 227 | 0.00 | 0.00 | 1.8 | 88 |
| 08/26 14:00 | 72 | 73 | 22 | 21 | 4 | 11 | 16 | 213 | 0.00 | 0.00 | 2.5 | 85 |
| 08/26 13:00 | 70 | 75 | 22 | 24 | 3 | 8 | 15 | 191 | 0.00 | 0.00 | 0.6 | 91 |
| 08/26 12:00 | 73 | 74 | 21 | 22 | 0 | 3 | 8 | 125 | 0.00 | 0.00 | 0.4 | 86 |
| 08/26 11:00 | 70 | 70 | 21 | 24 | 3 | 5 | 9 | 177 | 0.00 | 0.00 | 2.1 | 76 |
| 08/26 10:00 | 67 | 65 | 22 | 28 | 1 | 4 | 10 | 166 | 0.00 | 0.00 | 2.7 | 63 |
| 08/26 09:00 | 66 | 55 | 24 | 58 | 0 | 2 | 5 | 198 | 0.00 | 0.00 | 2.7 | 53 |
| 08/26 08:00 | 63 | 48 | 25 | 68 | 3 | 6 | 9 | 170 | 0.00 | 0.00 | 2.6 | 47 |
| 08/26 07:00 | 62 | 46 | 27 | 69 | 4 | 6 | 9 | 196 | 0.00 | 0.00 | 2.5 | 45 |
| 08/26 06:00 | 61 | 46 | 32 | 69 | 4 | 6 | 9 | 223 | 0.00 | 0.00 | 2.7 | 45 |
| 08/26 05:00 | 61 | 45 | 34 | 70 | 3 | 7 | 10 | 226 | 0.00 | 0.00 | 2.2 | 45 |
| 08/26 04:00 | 62 | 46 | 33 | 67 | 3 | 6 | 9 | 187 | 0.00 | 0.00 | 2.0 | 46 |
| 08/26 03:00 | 63 | 47 | 32 | 68 | 4 | 6 | 9 | 191 | 0.00 | 0.00 | 2.0 | 47 |
| 08/26 02:00 | 63 | 48 | 33 | 67 | 3 | 6 | 9 | 187 | 0.00 | 0.00 | 2.5 | 48 |
| 08/26 01:00 | 62 | 50 | 34 | 63 | 2 | 7 | 11 | 207 | 0.00 | 0.00 | 2.2 | 50 |
| 08/26 00:00 | 62 | 51 | 35 | 60 | 8 | 9 | 11 | 119 | 0.00 | 0.00 | 2.3 | 51 |
| 08/25 23:00 | 63 | 50 | 33 | 58 | 6 | 9 | 13 | 51 | 0.00 | 0.00 | 2.6 | 51 |
| 08/25 22:00 | 63 | 52 | 32 | 57 | 4 | 8 | 12 | 39 | 0.00 | 0.00 | 2.8 | 53 |
| 08/25 21:00 | 64 | 55 | 31 | 56 | 2 | 6 | 10 | 43 | 0.00 | 0.00 | 2.4 | 56 |
| 08/25 20:00 | 63 | 60 | 33 | 51 | 2 | 6 | 9 | 224 | 0.00 | 0.00 | 2.2 | 62 |
| 08/25 19:00 | 65 | 67 | 33 | 37 | 5 | 7 | 11 | 141 | 0.00 | 0.00 | 1.1 | 71 |
| 08/25 18:00 | 68 | 71 | 30 | 33 | 4 | 6 | 11 | 211 | 0.00 | 0.00 | 1.7 | 76 |
| 08/25 17:00 | 71 | 73 | 26 | 24 | 2 | 7 | 11 | 220 | 0.00 | 0.00 | 2.2 | 85 |
| 08/25 16:00 | 73 | 74 | 23 | 23 | 1 | 6 | 11 | 221 | 0.00 | 0.00 | 2.1 | 88 |
| 08/25 15:00 | 73 | 75 | 21 | 21 | 2 | 9 | 15 | 219 | 0.00 | 0.00 | 1.7 | 91 |
| 08/25 14:00 | 71 | 74 | 21 | 19 | 6 | 10 | 15 | 221 | 0.00 | 0.00 | 1.9 | 92 |
| 08/25 13:00 | 72 | 73 | 23 | 21 | 0 | 5 | 8 | 191 | 0.00 | 0.00 | 1.2 | 91 |
| 08/25 12:00 | 68 | 70 | 30 | 31 | 1 | 3 | 6 | 80 | 0.00 | 0.00 | 1.9 | 81 |
| 08/25 11:00 | 66 | 66 | 33 | 38 | 0 | 3 | 5 | 120 | 0.00 | 0.00 | 2.0 | 74 |
| 08/25 10:00 | 65 | 61 | 34 | 38 | 2 | 5 | 9 | 171 | 0.00 | 0.00 | 3.4 | 59 |
| 08/25 09:00 | 60 | 54 | 41 | 57 | 2 | 6 | 11 | 155 | 0.00 | 0.00 | 2.7 | 51 |
| 08/25 08:00 | 58 | 47 | 43 | 77 | 2 | 6 | 12 | 135 | 0.00 | 0.00 | 2.8 | 45 |
| 08/25 07:00 | 56 | 44 | 45 | 77 | 3 | 8 | 12 | 200 | 0.00 | 0.00 | 2.6 | 43 |
| 08/25 06:00 | 56 | 43 | 46 | 76 | 3 | 8 | 11 | 200 | 0.00 | 0.00 | 2.7 | 43 |
| 08/25 05:00 | 56 | 44 | 45 | 74 | 5 | 9 | 13 | 192 | 0.00 | 0.00 | 2.7 | 44 |
| 08/25 04:00 | 56 | 45 | 44 | 71 | 1 | 5 | 8 | 184 | 0.00 | 0.00 | 3.0 | 44 |
| 08/25 03:00 | 57 | 45 | 45 | 72 | 3 | 7 | 14 | 173 | 0.00 | 0.00 | 2.5 | 44 |
| 08/25 02:00 | 57 | 46 | 43 | 71 | 0 | 8 | 19 | 159 | 0.00 | 0.00 | 2.1 | 46 |
| 08/25 01:00 | 57 | 47 | 42 | 71 | 1 | 6 | 13 | 22 | 0.00 | 0.00 | 2.7 | 47 |
| 08/25 00:00 | 58 | 48 | 42 | 69 | 0 | 6 | 12 | 21 | 0.00 | 0.00 | 2.7 | 48 |
| 08/24 23:00 | 58 | 49 | 39 | 65 | 3 | 9 | 14 | 26 | 0.00 | 0.00 | 2.8 | 49 |
| 08/24 22:00 | 59 | 50 | 40 | 64 | 2 | 8 | 20 | 32 | 0.00 | 0.00 | 2.8 | 50 |
| 08/24 21:00 | 59 | 52 | 38 | 63 | 0 | 3 | 8 | 98 | 0.00 | 0.00 | 2.9 | 53 |

